createdAt,value
2023-01-21T00:00:03.903Z,98.28
2023-01-21T00:01:08.037Z,98.27
2023-01-21T00:02:12.394Z,98.29
2023-01-21T00:03:16.425Z,98.29
2023-01-21T00:04:20.532Z,98.22
2023-01-21T00:05:24.732Z,98.15
2023-01-21T00:06:28.791Z,98.06
2023-01-21T00:07:33.085Z,97.98
2023-01-21T00:08:37.183Z,97.98
2023-01-21T00:09:42.242Z,97.95
2023-01-21T00:10:46.082Z,97.91
2023-01-21T00:11:50.205Z,97.89
2023-01-21T00:12:54.519Z,97.92
2023-01-21T00:13:58.645Z,97.93
2023-01-21T00:15:02.953Z,97.96
2023-01-21T00:16:13.406Z,98.03
2023-01-21T00:17:15.964Z,98.07
2023-01-21T00:18:20.118Z,98.12
2023-01-21T00:19:24.248Z,98.17
2023-01-21T00:20:42.489Z,98.18
2023-01-21T00:21:45.319Z,98.19
2023-01-21T00:22:49.401Z,98.23
2023-01-21T00:23:53.596Z,98.19
2023-01-21T00:24:57.853Z,98.17
2023-01-21T00:26:01.984Z,98.21
2023-01-21T00:27:06.039Z,98.19
2023-01-21T00:28:10.278Z,98.23
2023-01-21T00:29:14.516Z,98.25
2023-01-21T00:30:19.022Z,98.25
2023-01-21T00:31:22.947Z,98.26
2023-01-21T00:32:26.957Z,98.24
2023-01-21T00:33:31.121Z,98.29
2023-01-21T00:34:36.166Z,98.28
2023-01-21T00:35:39.993Z,98.33
2023-01-21T00:36:44.191Z,98.31
2023-01-21T00:37:48.382Z,98.31
2023-01-21T00:38:52.599Z,98.31
2023-01-21T00:39:56.758Z,98.32
2023-01-21T00:41:00.863Z,98.30
2023-01-21T00:42:05.110Z,98.29
2023-01-21T00:43:09.198Z,98.29
2023-01-21T00:44:13.391Z,98.27
2023-01-21T00:45:17.496Z,98.26
2023-01-21T00:46:21.770Z,98.24
2023-01-21T00:47:25.879Z,98.19
2023-01-21T00:48:29.911Z,98.19
2023-01-21T00:49:34.017Z,98.12
2023-01-21T00:50:38.285Z,98.07
2023-01-21T00:51:42.420Z,98.09
2023-01-21T00:52:46.628Z,98.14
2023-01-21T00:53:50.760Z,98.14
2023-01-21T00:54:55.011Z,98.18
2023-01-21T00:55:59.128Z,98.19
2023-01-21T00:57:03.183Z,98.16
2023-01-21T00:58:07.314Z,98.13
2023-01-21T00:59:11.536Z,98.11
2023-01-21T01:00:15.984Z,98.13
2023-01-21T01:01:19.992Z,98.17
2023-01-21T01:02:24.153Z,98.20
2023-01-21T01:03:28.189Z,98.24
2023-01-21T01:04:32.341Z,98.28
2023-01-21T01:05:36.455Z,98.31
2023-01-21T01:06:40.671Z,98.31
2023-01-21T01:07:44.841Z,98.31
2023-01-21T01:08:49.047Z,98.36
2023-01-21T01:09:53.120Z,98.34
2023-01-21T01:10:57.158Z,98.37
2023-01-21T01:12:01.439Z,98.39
2023-01-21T01:13:05.606Z,98.41
2023-01-21T01:14:09.807Z,98.43
2023-01-21T01:15:13.876Z,98.44
2023-01-21T01:16:18.084Z,98.45
2023-01-21T01:17:22.214Z,98.45
2023-01-21T01:18:26.361Z,98.48
2023-01-21T01:19:36.674Z,98.48
2023-01-21T01:20:39.454Z,98.47
2023-01-21T01:21:43.639Z,98.42
2023-01-21T01:22:47.759Z,98.39
2023-01-21T01:23:51.962Z,98.36
2023-01-21T01:25:02.006Z,98.38
2023-01-21T01:26:04.862Z,98.34
2023-01-21T01:27:08.861Z,98.36
2023-01-21T01:28:13.185Z,98.38
2023-01-21T01:29:17.273Z,98.40
2023-01-21T01:30:21.490Z,98.38
2023-01-21T01:31:25.772Z,98.43
2023-01-21T01:32:29.892Z,98.42
2023-01-21T01:33:34.026Z,98.40
2023-01-21T01:34:38.168Z,98.40
2023-01-21T01:35:42.296Z,98.35
2023-01-21T01:36:46.459Z,98.24
2023-01-21T01:37:50.618Z,98.23
2023-01-21T01:38:54.698Z,98.22
2023-01-21T01:39:58.985Z,98.23
2023-01-21T01:41:03.150Z,98.23
2023-01-21T01:42:07.284Z,98.23
2023-01-21T01:43:11.532Z,98.25
2023-01-21T01:44:15.740Z,98.27
2023-01-21T01:45:19.800Z,98.26
2023-01-21T01:46:24.111Z,98.26
2023-01-21T01:47:28.182Z,98.29
2023-01-21T01:48:32.384Z,98.32
2023-01-21T01:49:36.579Z,98.34
2023-01-21T01:50:40.596Z,98.33
2023-01-21T01:51:44.945Z,98.33
2023-01-21T01:52:49.029Z,98.37
2023-01-21T01:53:59.390Z,98.36
2023-01-21T01:55:02.040Z,98.33
2023-01-21T01:56:06.196Z,98.27
2023-01-21T01:57:10.484Z,98.22
2023-01-21T01:58:14.498Z,98.20
2023-01-21T01:59:18.721Z,98.23
2023-01-21T02:00:22.956Z,98.22
2023-01-21T02:01:27.100Z,98.23
2023-01-21T02:02:31.221Z,98.16
2023-01-21T02:03:35.489Z,98.10
2023-01-21T02:04:39.608Z,98.08
2023-01-21T02:05:43.844Z,98.11
2023-01-21T02:06:48.040Z,98.17
2023-01-21T02:07:52.164Z,98.20
2023-01-21T02:08:56.331Z,98.19
2023-01-21T02:10:00.522Z,98.18
2023-01-21T02:11:07.759Z,98.21
2023-01-21T02:12:10.905Z,98.20
2023-01-21T02:13:15.100Z,98.21
2023-01-21T02:14:19.294Z,98.24
2023-01-21T02:15:23.467Z,98.28
2023-01-21T02:16:27.684Z,98.34
2023-01-21T02:17:31.834Z,98.35
2023-01-21T02:18:36.024Z,98.38
2023-01-21T02:19:40.383Z,98.43
2023-01-21T02:20:45.313Z,98.49
2023-01-21T02:21:49.069Z,98.57
2023-01-21T02:22:53.351Z,98.65
2023-01-21T02:23:57.287Z,98.70
2023-01-21T02:25:01.566Z,98.75
2023-01-21T02:26:19.706Z,98.86
2023-01-21T02:27:30.122Z,98.88
2023-01-21T02:28:26.665Z,98.90
2023-01-21T02:29:30.954Z,98.89
2023-01-21T02:30:35.109Z,98.92
2023-01-21T02:31:39.301Z,98.89
2023-01-21T02:32:43.435Z,98.90
2023-01-21T02:33:47.658Z,98.92
2023-01-21T02:34:51.796Z,98.96
2023-01-21T02:35:55.977Z,98.99
2023-01-21T02:37:00.140Z,98.96
2023-01-21T02:38:04.265Z,98.95
2023-01-21T02:39:08.447Z,98.97
2023-01-21T02:40:12.566Z,98.98
2023-01-21T02:41:16.682Z,98.96
2023-01-21T02:42:20.954Z,98.94
2023-01-21T02:43:25.307Z,98.92
2023-01-21T02:44:29.401Z,98.92
2023-01-21T02:45:33.441Z,98.89
2023-01-21T02:46:37.749Z,98.89
2023-01-21T02:47:41.876Z,98.86
2023-01-21T02:48:46.045Z,98.85
2023-01-21T02:49:50.376Z,98.85
2023-01-21T02:50:54.497Z,98.86
2023-01-21T02:51:58.460Z,98.85
2023-01-21T02:53:02.660Z,98.81
2023-01-21T02:54:06.683Z,98.81
2023-01-21T02:55:10.925Z,98.82
2023-01-21T02:56:15.104Z,98.85
2023-01-21T02:57:19.495Z,98.87
2023-01-21T02:58:26.610Z,98.85
2023-01-21T02:59:29.801Z,98.85
2023-01-21T03:00:34.003Z,98.85
2023-01-21T03:01:38.174Z,98.88
2023-01-21T03:02:42.324Z,98.86
2023-01-21T03:03:46.440Z,98.85
2023-01-21T03:04:50.664Z,98.85
2023-01-21T03:05:54.727Z,98.86
2023-01-21T03:06:58.949Z,98.88
2023-01-21T03:08:03.163Z,98.91
2023-01-21T03:09:07.349Z,98.91
2023-01-21T03:10:11.443Z,98.93
2023-01-21T03:11:15.522Z,98.94
2023-01-21T03:12:19.606Z,98.96
2023-01-21T03:13:23.842Z,98.95
2023-01-21T03:14:28.046Z,98.91
2023-01-21T03:15:32.188Z,98.89
2023-01-21T03:16:36.484Z,98.85
2023-01-21T03:19:08.047Z,98.71
2023-01-21T03:20:11.939Z,98.67
2023-01-21T03:21:16.261Z,98.62
2023-01-21T03:22:20.200Z,98.59
2023-01-21T03:23:24.379Z,98.63
2023-01-21T03:24:28.566Z,98.65
2023-01-21T03:25:32.820Z,98.71
2023-01-21T03:26:37.099Z,98.70
2023-01-21T03:27:41.293Z,98.79
2023-01-21T03:28:45.396Z,98.83
2023-01-21T03:29:49.744Z,98.86
2023-01-21T03:30:53.746Z,98.89
2023-01-21T03:31:57.956Z,98.90
2023-01-21T03:33:02.059Z,98.93
2023-01-21T03:34:06.250Z,98.95
2023-01-21T03:35:10.391Z,98.98
2023-01-21T03:36:14.549Z,99.05
2023-01-21T03:37:18.777Z,99.10
2023-01-21T03:38:22.938Z,99.15
2023-01-21T03:39:27.053Z,99.21
2023-01-21T03:40:31.100Z,99.23
2023-01-21T03:41:35.322Z,99.24
2023-01-21T03:42:39.592Z,99.28
2023-01-21T03:43:43.544Z,99.31
2023-01-21T03:44:47.659Z,99.37
2023-01-21T03:45:51.966Z,99.42
2023-01-21T03:46:55.997Z,99.43
2023-01-21T03:48:00.161Z,99.42
2023-01-21T03:49:04.305Z,99.42
2023-01-21T03:50:08.340Z,99.35
2023-01-21T03:51:12.697Z,99.30
2023-01-21T03:52:16.816Z,99.27
2023-01-21T03:53:20.974Z,99.27
2023-01-21T03:54:25.092Z,99.28
2023-01-21T03:55:29.284Z,99.27
2023-01-21T03:56:33.422Z,99.28
2023-01-21T03:57:37.447Z,99.30
2023-01-21T03:58:41.745Z,99.38
2023-01-21T03:59:46.006Z,99.43
2023-01-21T04:00:50.257Z,99.44
2023-01-21T04:01:54.286Z,99.46
2023-01-21T04:02:58.379Z,99.49
2023-01-21T04:04:02.601Z,99.48
2023-01-21T04:05:06.662Z,99.50
2023-01-21T04:06:10.873Z,99.56
2023-01-21T04:07:14.903Z,99.57
2023-01-21T04:08:19.007Z,99.57
2023-01-21T04:09:23.201Z,99.56
2023-01-21T04:10:27.340Z,99.58
2023-01-21T04:11:31.668Z,99.60
2023-01-21T04:12:35.719Z,99.64
2023-01-21T04:13:39.897Z,99.60
2023-01-21T04:14:44.115Z,99.63
2023-01-21T04:15:48.158Z,99.64
2023-01-21T04:16:52.383Z,99.57
2023-01-21T04:17:56.675Z,99.55
2023-01-21T04:19:00.836Z,99.55
2023-01-21T04:20:04.986Z,99.55
2023-01-21T04:21:09.054Z,99.57
2023-01-21T04:22:13.270Z,99.59
2023-01-21T04:23:17.435Z,99.58
2023-01-21T04:24:21.568Z,99.58
2023-01-21T04:25:25.707Z,99.60
2023-01-21T04:26:29.919Z,99.63
2023-01-21T04:27:34.056Z,99.70
2023-01-21T04:28:38.256Z,99.76
2023-01-21T04:29:42.380Z,99.82
2023-01-21T04:30:46.612Z,99.84
2023-01-21T04:31:50.677Z,99.84
2023-01-21T04:32:54.840Z,99.83
2023-01-21T04:33:59.069Z,99.84
2023-01-21T04:35:03.280Z,99.88
2023-01-21T04:36:07.388Z,99.92
2023-01-21T04:37:11.613Z,99.96
2023-01-21T04:38:15.769Z,100.00
2023-01-21T04:39:19.906Z,100.00
2023-01-21T04:40:24.149Z,100.00
2023-01-21T04:41:28.336Z,100.00
2023-01-21T04:42:32.348Z,100.00
2023-01-21T04:43:36.589Z,100.00
2023-01-21T04:44:40.633Z,100.00
2023-01-21T04:45:44.816Z,100.00
2023-01-21T04:46:48.894Z,100.00
2023-01-21T04:47:53.117Z,100.00
2023-01-21T04:48:57.192Z,100.00
2023-01-21T04:50:01.413Z,100.00
2023-01-21T04:51:05.646Z,100.00
2023-01-21T04:52:09.652Z,99.96
2023-01-21T04:53:13.843Z,99.89
2023-01-21T04:54:17.899Z,99.87
2023-01-21T04:55:23.050Z,99.84
2023-01-21T04:56:26.225Z,99.81
2023-01-21T04:57:30.484Z,99.75
2023-01-21T04:58:34.619Z,99.77
2023-01-21T04:59:38.751Z,99.68
2023-01-21T05:00:42.925Z,99.68
2023-01-21T05:01:47.062Z,99.69
2023-01-21T05:02:51.227Z,99.72
2023-01-21T05:03:55.459Z,99.77
2023-01-21T05:04:59.697Z,99.81
2023-01-21T05:06:03.900Z,99.88
2023-01-21T05:07:07.978Z,99.90
2023-01-21T05:08:12.030Z,99.91
2023-01-21T05:09:16.250Z,99.94
2023-01-21T05:10:20.365Z,99.98
2023-01-21T05:11:24.618Z,100.00
2023-01-21T05:12:28.755Z,100.00
2023-01-21T05:13:32.856Z,100.00
2023-01-21T05:14:37.240Z,100.00
2023-01-21T05:15:41.307Z,100.00
2023-01-21T05:16:45.410Z,100.00
2023-01-21T05:17:52.534Z,100.00
2023-01-21T05:18:55.651Z,100.00
2023-01-21T05:19:59.852Z,100.00
2023-01-21T05:21:04.148Z,100.00
2023-01-21T05:22:08.226Z,100.00
2023-01-21T05:23:12.322Z,100.00
2023-01-21T05:24:16.502Z,100.00
2023-01-21T05:25:20.622Z,100.00
2023-01-21T05:26:24.787Z,100.00
2023-01-21T05:27:28.962Z,100.00
2023-01-21T05:28:32.987Z,100.00
2023-01-21T05:29:37.291Z,100.00
2023-01-21T05:30:43.903Z,100.00
2023-01-21T05:31:45.726Z,100.00
2023-01-21T05:32:49.692Z,100.00
2023-01-21T05:33:53.836Z,100.00
2023-01-21T05:34:57.991Z,100.00
2023-01-21T05:36:02.168Z,100.00
2023-01-21T05:37:06.310Z,100.00
2023-01-21T05:38:10.474Z,100.00
2023-01-21T05:39:14.570Z,100.00
2023-01-21T05:40:19.410Z,100.00
2023-01-21T05:41:23.029Z,100.00
2023-01-21T05:42:27.390Z,100.00
2023-01-21T05:43:31.424Z,100.00
2023-01-21T05:44:35.688Z,100.00
2023-01-21T05:45:39.877Z,100.00
2023-01-21T05:46:43.989Z,100.00
2023-01-21T05:47:48.137Z,100.00
2023-01-21T05:48:52.441Z,100.00
2023-01-21T05:49:56.538Z,100.00
2023-01-21T05:51:00.620Z,100.00
2023-01-21T05:52:04.752Z,100.00
2023-01-21T05:53:08.843Z,100.00
2023-01-21T05:54:13.073Z,100.00
2023-01-21T05:55:17.196Z,100.00
2023-01-21T05:56:21.429Z,100.00
2023-01-21T05:57:25.540Z,100.00
2023-01-21T05:58:29.740Z,100.00
2023-01-21T05:59:33.986Z,100.00
2023-01-21T06:00:38.214Z,100.00
2023-01-21T06:01:42.411Z,100.00
2023-01-21T06:02:46.612Z,100.00
2023-01-21T06:03:50.820Z,100.00
2023-01-21T06:04:57.816Z,100.00
2023-01-21T06:06:01.020Z,100.00
2023-01-21T06:07:06.041Z,100.00
2023-01-21T06:08:09.876Z,100.00
2023-01-21T06:09:14.012Z,100.00
2023-01-21T06:10:18.584Z,100.00
2023-01-21T06:11:22.271Z,100.00
2023-01-21T06:12:26.472Z,100.00
2023-01-21T06:13:30.550Z,100.00
2023-01-21T06:14:34.691Z,100.00
2023-01-21T06:15:38.915Z,100.00
2023-01-21T06:16:42.890Z,100.00
2023-01-21T06:17:47.574Z,100.00
2023-01-21T06:18:52.053Z,100.00
2023-01-21T06:19:55.823Z,100.00
2023-01-21T06:21:00.074Z,100.00
2023-01-21T06:22:04.059Z,100.00
2023-01-21T06:23:08.132Z,100.00
2023-01-21T06:24:12.349Z,100.00
2023-01-21T06:25:16.679Z,100.00
2023-01-21T06:26:20.640Z,100.00
2023-01-21T06:27:24.805Z,100.00
2023-01-21T06:28:28.950Z,100.00
2023-01-21T06:29:33.075Z,100.00
2023-01-21T06:30:37.436Z,100.00
2023-01-21T06:31:41.675Z,100.00
2023-01-21T06:32:45.571Z,100.00
2023-01-21T06:33:49.810Z,100.00
2023-01-21T06:34:54.150Z,100.00
2023-01-21T06:35:58.231Z,100.00
2023-01-21T06:37:02.437Z,100.00
2023-01-21T06:38:06.483Z,100.00
2023-01-21T06:39:10.511Z,100.00
2023-01-21T06:40:14.970Z,100.00
2023-01-21T06:41:18.952Z,100.00
2023-01-21T06:42:23.257Z,100.00
2023-01-21T06:43:27.212Z,100.00
2023-01-21T06:44:31.407Z,100.00
2023-01-21T06:45:35.544Z,100.00
2023-01-21T06:46:43.450Z,100.00
2023-01-21T06:47:43.801Z,100.00
2023-01-21T06:48:48.151Z,100.00
2023-01-21T06:49:52.247Z,100.00
2023-01-21T06:50:56.444Z,100.00
2023-01-21T06:53:27.783Z,100.00
2023-01-21T06:54:31.798Z,100.00
2023-01-21T06:55:35.994Z,100.00
2023-01-21T06:56:40.005Z,100.00
2023-01-21T06:57:44.117Z,100.00
2023-01-21T06:58:48.236Z,100.00
2023-01-21T06:59:52.384Z,100.00
2023-01-21T07:00:56.613Z,100.00
2023-01-21T07:02:00.902Z,100.00
2023-01-21T07:03:04.854Z,100.00
2023-01-21T07:04:09.106Z,100.00
2023-01-21T07:05:13.148Z,100.00
2023-01-21T07:06:17.216Z,100.00
2023-01-21T07:07:21.300Z,100.00
2023-01-21T07:08:25.560Z,100.00
2023-01-21T07:09:29.778Z,100.00
2023-01-21T07:10:33.823Z,100.00
2023-01-21T07:11:37.909Z,100.00
2023-01-21T07:12:42.146Z,100.00
2023-01-21T07:13:46.221Z,100.00
2023-01-21T07:14:50.398Z,100.00
2023-01-21T07:15:54.578Z,100.00
2023-01-21T07:16:58.741Z,100.00
2023-01-21T07:18:02.980Z,100.00
2023-01-21T07:19:06.973Z,100.00
2023-01-21T07:20:11.139Z,100.00
2023-01-21T07:21:15.271Z,100.00
2023-01-21T07:22:19.485Z,100.00
2023-01-21T07:23:23.626Z,100.00
2023-01-21T07:24:27.828Z,100.00
2023-01-21T07:25:31.899Z,100.00
2023-01-21T07:26:36.038Z,100.00
2023-01-21T07:27:40.364Z,100.00
2023-01-21T07:28:44.357Z,100.00
2023-01-21T07:29:49.433Z,100.00
2023-01-21T07:30:53.090Z,100.00
2023-01-21T07:31:57.310Z,100.00
2023-01-21T07:33:01.274Z,100.00
2023-01-21T07:34:05.501Z,100.00
2023-01-21T07:35:09.633Z,100.00
2023-01-21T07:36:13.783Z,100.00
2023-01-21T07:37:17.914Z,100.00
2023-01-21T07:38:22.088Z,100.00
2023-01-21T07:39:26.144Z,100.00
2023-01-21T07:40:30.450Z,100.00
2023-01-21T07:41:34.615Z,100.00
2023-01-21T07:42:38.781Z,100.00
2023-01-21T07:43:42.811Z,100.00
2023-01-21T07:44:46.884Z,100.00
2023-01-21T07:45:51.147Z,100.00
2023-01-21T07:46:55.254Z,100.00
2023-01-21T07:47:59.376Z,100.00
2023-01-21T07:49:03.410Z,100.00
2023-01-21T07:50:07.753Z,100.00
2023-01-21T07:51:11.958Z,100.00
2023-01-21T07:52:15.955Z,100.00
2023-01-21T07:53:20.023Z,100.00
2023-01-21T07:54:24.179Z,100.00
2023-01-21T07:55:42.283Z,100.00
2023-01-21T07:56:45.079Z,100.00
2023-01-21T07:57:49.167Z,100.00
2023-01-21T07:58:53.295Z,100.00
2023-01-21T07:59:58.456Z,100.00
2023-01-21T08:01:02.238Z,100.00
2023-01-21T08:02:06.529Z,100.00
2023-01-21T08:03:10.374Z,100.00
2023-01-21T08:04:14.565Z,100.00
2023-01-21T08:05:19.066Z,100.00
2023-01-21T08:06:22.834Z,100.00
2023-01-21T08:07:27.031Z,100.00
2023-01-21T08:08:31.149Z,100.00
2023-01-21T08:09:35.495Z,100.00
2023-01-21T08:10:39.643Z,100.00
2023-01-21T08:11:57.989Z,100.00
2023-01-21T08:13:00.785Z,100.00
2023-01-21T08:14:04.962Z,100.00
2023-01-21T08:15:09.027Z,100.00
2023-01-21T08:16:13.217Z,100.00
2023-01-21T08:17:17.248Z,100.00
2023-01-21T08:18:21.483Z,100.00
2023-01-21T08:19:25.587Z,100.00
2023-01-21T08:20:29.799Z,100.00
2023-01-21T08:21:34.002Z,100.00
2023-01-21T08:22:38.279Z,100.00
2023-01-21T08:23:43.976Z,100.00
2023-01-21T08:24:47.600Z,100.00
2023-01-21T08:25:51.774Z,100.00
2023-01-21T08:26:55.914Z,100.00
2023-01-21T08:28:00.097Z,100.00
2023-01-21T08:29:04.204Z,100.00
2023-01-21T08:30:08.439Z,100.00
2023-01-21T08:31:12.668Z,100.00
2023-01-21T08:32:16.624Z,100.00
2023-01-21T08:33:20.873Z,100.00
2023-01-21T08:34:24.909Z,100.00
2023-01-21T08:35:28.985Z,100.00
2023-01-21T08:36:33.160Z,100.00
2023-01-21T08:37:37.281Z,100.00
2023-01-21T08:38:41.454Z,100.00
2023-01-21T08:39:45.655Z,100.00
2023-01-21T08:40:49.764Z,100.00
2023-01-21T08:41:53.957Z,100.00
2023-01-21T08:42:58.058Z,100.00
2023-01-21T08:44:05.254Z,100.00
2023-01-21T08:45:08.381Z,100.00
2023-01-21T08:46:12.600Z,100.00
2023-01-21T08:47:16.782Z,100.00
2023-01-21T08:48:21.085Z,100.00
2023-01-21T08:49:25.272Z,100.00
2023-01-21T08:50:29.349Z,100.00
2023-01-21T08:51:33.527Z,100.00
2023-01-21T08:52:37.576Z,100.00
2023-01-21T08:53:55.750Z,100.00
2023-01-21T08:54:58.457Z,100.00
2023-01-21T08:56:02.521Z,100.00
2023-01-21T08:57:06.697Z,100.00
2023-01-21T08:58:10.868Z,100.00
2023-01-21T08:59:15.014Z,100.00
2023-01-21T09:00:19.193Z,100.00
2023-01-21T09:01:23.277Z,100.00
2023-01-21T09:02:27.540Z,100.00
2023-01-21T09:03:31.636Z,100.00
2023-01-21T09:04:35.752Z,100.00
2023-01-21T09:05:40.005Z,100.00
2023-01-21T09:06:44.158Z,100.00
2023-01-21T09:07:49.225Z,100.00
2023-01-21T09:08:53.111Z,100.00
2023-01-21T09:09:57.253Z,100.00
2023-01-21T09:11:01.454Z,100.00
2023-01-21T09:12:05.719Z,100.00
2023-01-21T09:13:09.726Z,100.00
2023-01-21T09:14:13.958Z,100.00
2023-01-21T09:15:18.495Z,100.00
2023-01-21T09:16:22.337Z,100.00
2023-01-21T09:17:27.360Z,100.00
2023-01-21T09:18:31.259Z,100.00
2023-01-21T09:19:35.427Z,100.00
2023-01-21T09:20:39.493Z,100.00
2023-01-21T09:21:43.635Z,100.00
2023-01-21T09:22:47.807Z,100.00
2023-01-21T09:23:51.863Z,100.00
2023-01-21T09:24:56.012Z,100.00
2023-01-21T09:26:03.261Z,100.00
2023-01-21T09:27:06.484Z,100.00
2023-01-21T09:28:10.672Z,100.00
2023-01-21T09:29:14.834Z,100.00
2023-01-21T09:30:18.974Z,100.00
2023-01-21T09:31:23.299Z,100.00
2023-01-21T09:32:27.327Z,100.00
2023-01-21T09:33:45.562Z,100.00
2023-01-21T09:34:48.359Z,100.00
2023-01-21T09:35:58.498Z,100.00
2023-01-21T09:37:01.289Z,100.00
2023-01-21T09:38:05.317Z,100.00
2023-01-21T09:39:09.501Z,100.00
2023-01-21T09:40:13.765Z,100.00
2023-01-21T09:41:17.916Z,100.00
2023-01-21T09:42:22.081Z,100.00
2023-01-21T09:43:26.249Z,100.00
2023-01-21T09:44:30.412Z,100.00
2023-01-21T09:45:34.589Z,100.00
2023-01-21T09:46:38.821Z,100.00
2023-01-21T09:47:42.973Z,100.00
2023-01-21T09:48:47.174Z,100.00
2023-01-21T09:49:51.278Z,100.00
2023-01-21T09:50:55.508Z,100.00
2023-01-21T09:51:59.666Z,100.00
2023-01-21T09:53:03.798Z,100.00
2023-01-21T09:54:08.004Z,100.00
2023-01-21T09:55:12.188Z,100.00
2023-01-21T09:56:16.352Z,100.00
2023-01-21T09:57:20.683Z,100.00
2023-01-21T09:58:24.775Z,100.00
2023-01-21T09:59:28.962Z,100.00
2023-01-21T10:00:33.163Z,100.00
2023-01-21T10:01:37.304Z,100.00
2023-01-21T10:02:41.452Z,100.00
2023-01-21T10:03:45.654Z,100.00
2023-01-21T10:04:49.903Z,100.00
2023-01-21T10:05:54.952Z,100.00
2023-01-21T10:06:58.711Z,100.00
2023-01-21T10:08:02.921Z,100.00
2023-01-21T10:09:07.089Z,100.00
2023-01-21T10:10:11.238Z,100.00
2023-01-21T10:11:15.369Z,100.00
2023-01-21T10:12:19.563Z,100.00
2023-01-21T10:13:23.716Z,100.00
2023-01-21T10:14:27.859Z,100.00
2023-01-21T10:15:32.170Z,100.00
2023-01-21T10:16:36.276Z,100.00
2023-01-21T10:17:40.423Z,100.00
2023-01-21T10:18:44.619Z,100.00
2023-01-21T10:19:48.800Z,100.00
2023-01-21T10:20:53.036Z,100.00
2023-01-21T10:21:57.202Z,100.00
2023-01-21T10:23:04.366Z,100.00
2023-01-21T10:24:07.618Z,100.00
2023-01-21T10:25:11.868Z,100.00
2023-01-21T10:26:16.041Z,100.00
2023-01-21T10:27:20.301Z,100.00
2023-01-21T10:28:24.481Z,100.00
2023-01-21T10:29:28.664Z,100.00
2023-01-21T10:30:32.902Z,100.00
2023-01-21T10:31:37.152Z,100.00
2023-01-21T10:32:44.316Z,100.00
2023-01-21T10:33:47.605Z,100.00
2023-01-21T10:34:51.761Z,100.00
2023-01-21T10:35:55.911Z,100.00
2023-01-21T10:37:00.197Z,100.00
2023-01-21T10:38:04.385Z,100.00
2023-01-21T10:39:22.642Z,100.00
2023-01-21T10:40:26.364Z,100.00
2023-01-21T10:41:30.010Z,100.00
2023-01-21T10:42:34.453Z,100.00
2023-01-21T10:43:38.739Z,100.00
2023-01-21T10:44:42.865Z,100.00
2023-01-21T10:45:47.130Z,100.00
2023-01-21T10:46:51.288Z,100.00
2023-01-21T10:47:55.465Z,99.97
2023-01-21T10:49:02.741Z,99.84
2023-01-21T10:50:06.079Z,99.73
2023-01-21T10:51:10.239Z,99.78
2023-01-21T10:52:14.523Z,99.71
2023-01-21T10:53:18.674Z,99.73
2023-01-21T10:54:22.888Z,99.86
2023-01-21T10:55:27.097Z,99.85
2023-01-21T10:56:31.335Z,99.91
2023-01-21T10:57:35.460Z,99.95
2023-01-21T10:58:39.669Z,99.98
2023-01-21T10:59:43.884Z,100.00
2023-01-21T11:00:48.066Z,100.00
2023-01-21T11:01:52.304Z,100.00
2023-01-21T11:02:56.585Z,100.00
2023-01-21T11:04:00.828Z,100.00
2023-01-21T11:05:05.125Z,100.00
2023-01-21T11:06:09.375Z,100.00
2023-01-21T11:07:27.682Z,100.00
2023-01-21T11:08:30.593Z,100.00
2023-01-21T11:09:34.760Z,100.00
2023-01-21T11:10:38.926Z,100.00
2023-01-21T11:11:43.291Z,100.00
2023-01-21T11:12:47.504Z,100.00
2023-01-21T11:13:51.657Z,100.00
2023-01-21T11:14:55.846Z,100.00
2023-01-21T11:16:00.024Z,100.00
2023-01-21T11:17:05.123Z,100.00
2023-01-21T11:18:08.888Z,100.00
2023-01-21T11:19:13.115Z,100.00
2023-01-21T11:20:17.352Z,100.00
2023-01-21T11:21:21.731Z,100.00
2023-01-21T11:22:25.811Z,99.97
2023-01-21T11:23:30.075Z,99.95
2023-01-21T11:24:34.187Z,99.97
2023-01-21T11:25:38.405Z,99.96
2023-01-21T11:26:42.600Z,99.96
2023-01-21T11:27:46.782Z,99.98
2023-01-21T11:28:51.115Z,99.95
2023-01-21T11:29:55.243Z,100.00
2023-01-21T11:30:59.656Z,100.00
2023-01-21T11:32:03.754Z,100.00
2023-01-21T11:33:07.762Z,100.00
2023-01-21T11:34:12.063Z,100.00
2023-01-21T11:35:16.327Z,100.00
2023-01-21T11:36:20.420Z,100.00
2023-01-21T11:37:24.764Z,100.00
2023-01-21T11:38:28.913Z,100.00
2023-01-21T11:39:33.121Z,100.00
2023-01-21T11:40:37.324Z,100.00
2023-01-21T11:41:41.580Z,100.00
2023-01-21T11:42:45.708Z,100.00
2023-01-21T11:43:49.889Z,100.00
2023-01-21T11:44:54.258Z,100.00
2023-01-21T11:45:58.498Z,100.00
2023-01-21T11:47:02.699Z,100.00
2023-01-21T11:48:06.922Z,100.00
2023-01-21T11:49:11.259Z,100.00
2023-01-21T11:50:15.747Z,100.00
2023-01-21T11:51:19.579Z,100.00
2023-01-21T11:52:23.751Z,100.00
2023-01-21T11:53:27.912Z,100.00
2023-01-21T11:54:35.139Z,100.00
2023-01-21T11:55:38.438Z,100.00
2023-01-21T11:56:42.647Z,100.00
2023-01-21T11:57:46.794Z,100.00
2023-01-21T11:58:50.973Z,100.00
2023-01-21T11:59:55.411Z,100.00
2023-01-21T12:00:59.509Z,100.00
2023-01-21T12:02:03.839Z,100.00
2023-01-21T12:03:07.995Z,100.00
2023-01-21T12:04:12.278Z,100.00
2023-01-21T12:05:16.475Z,100.00
2023-01-21T12:06:20.794Z,100.00
2023-01-21T12:07:24.956Z,100.00
2023-01-21T12:08:29.148Z,100.00
2023-01-21T12:09:33.396Z,100.00
2023-01-21T12:10:37.693Z,100.00
2023-01-21T12:11:41.827Z,100.00
2023-01-21T12:12:45.983Z,100.00
2023-01-21T12:13:50.212Z,100.00
2023-01-21T12:14:54.384Z,100.00
2023-01-21T12:16:12.780Z,99.90
2023-01-21T12:17:15.601Z,99.60
2023-01-21T12:18:19.660Z,99.27
2023-01-21T12:19:23.916Z,98.91
2023-01-21T12:20:28.096Z,98.62
2023-01-21T12:21:32.262Z,98.35
2023-01-21T12:22:36.526Z,98.16
2023-01-21T12:23:40.676Z,98.04
2023-01-21T12:24:44.882Z,97.92
2023-01-21T12:25:49.036Z,97.79
2023-01-21T12:26:53.379Z,97.74
2023-01-21T12:27:57.521Z,97.69
2023-01-21T12:29:01.756Z,97.67
2023-01-21T12:30:05.955Z,97.65
2023-01-21T12:31:10.319Z,97.65
2023-01-21T12:32:14.371Z,97.68
2023-01-21T12:33:18.573Z,97.62
2023-01-21T12:34:22.655Z,97.53
2023-01-21T12:35:26.909Z,97.44
2023-01-21T12:36:31.235Z,97.39
2023-01-21T12:37:35.316Z,97.34
2023-01-21T12:38:39.512Z,97.23
2023-01-21T12:39:43.839Z,97.10
2023-01-21T12:40:48.060Z,97.08
2023-01-21T12:41:52.340Z,96.92
2023-01-21T12:42:56.569Z,96.77
2023-01-21T12:44:00.755Z,96.60
2023-01-21T12:45:04.978Z,96.52
2023-01-21T12:46:09.249Z,96.45
2023-01-21T12:47:13.365Z,96.36
2023-01-21T12:48:17.549Z,96.29
2023-01-21T12:49:21.845Z,96.21
2023-01-21T12:50:26.041Z,96.18
2023-01-21T12:51:30.256Z,96.19
2023-01-21T12:52:34.452Z,96.19
2023-01-21T12:53:38.556Z,96.19
2023-01-21T12:54:42.773Z,96.14
2023-01-21T12:55:46.979Z,96.09
2023-01-21T12:56:51.143Z,96.02
2023-01-21T12:57:55.351Z,95.92
2023-01-21T12:58:59.546Z,95.83
2023-01-21T13:00:03.707Z,95.84
2023-01-21T13:01:08.093Z,95.88
2023-01-21T13:02:12.260Z,95.90
2023-01-21T13:03:16.358Z,95.87
2023-01-21T13:04:20.497Z,95.77
2023-01-21T13:05:24.741Z,95.70
2023-01-21T13:06:42.535Z,95.66
2023-01-21T13:07:33.192Z,95.63
2023-01-21T13:08:51.383Z,95.65
2023-01-21T13:09:54.355Z,95.65
2023-01-21T13:10:58.340Z,95.70
2023-01-21T13:12:02.628Z,95.68
2023-01-21T13:13:06.748Z,95.68
2023-01-21T13:14:10.945Z,95.69
2023-01-21T13:15:15.124Z,95.58
2023-01-21T13:16:19.386Z,95.49
2023-01-21T13:17:23.513Z,95.47
2023-01-21T13:18:27.700Z,95.42
2023-01-21T13:19:31.878Z,95.38
2023-01-21T13:20:37.055Z,95.38
2023-01-21T13:21:40.927Z,95.38
2023-01-21T13:22:45.150Z,95.40
2023-01-21T13:23:50.192Z,95.43
2023-01-21T13:24:54.021Z,95.45
2023-01-21T13:25:58.227Z,95.41
2023-01-21T13:27:02.422Z,95.26
2023-01-21T13:28:06.716Z,95.04
2023-01-21T13:29:10.922Z,94.63
2023-01-21T13:30:15.405Z,94.39
2023-01-21T13:31:19.526Z,94.27
2023-01-21T13:32:23.608Z,94.18
2023-01-21T13:33:27.825Z,94.13
2023-01-21T13:34:31.985Z,94.11
2023-01-21T13:35:36.240Z,94.06
2023-01-21T13:36:40.402Z,93.95
2023-01-21T13:37:44.681Z,93.84
2023-01-21T13:38:48.691Z,93.77